createdAt,value
2017-11-08T00:01:39.154Z,6.62
2017-11-08T00:04:19.096Z,8.50
2017-11-08T00:06:55.479Z,9.15
2017-11-08T00:09:30.167Z,6.60
2017-11-08T00:12:04.618Z,7.12
2017-11-08T00:14:45.776Z,8.40
2017-11-08T00:17:20.249Z,10.20
2017-11-08T00:19:57.414Z,5.03
2017-11-08T00:22:31.746Z,5.90
2017-11-08T00:25:06.292Z,13.00
2017-11-08T00:27:40.567Z,6.05
2017-11-08T00:30:14.985Z,9.00
2017-11-08T00:32:49.391Z,5.55
2017-11-08T00:35:23.939Z,7.55
2017-11-08T00:37:58.280Z,8.60
2017-11-08T00:40:32.733Z,12.73
2017-11-08T00:43:07.041Z,7.53
2017-11-08T00:45:41.531Z,5.65
2017-11-08T00:48:15.855Z,10.23
2017-11-08T00:50:53.122Z,7.25
2017-11-08T00:53:27.591Z,9.10
2017-11-08T00:56:04.009Z,9.38
2017-11-08T00:58:38.539Z,7.78
2017-11-08T01:01:13.038Z,6.20
2017-11-08T01:03:47.392Z,7.40
2017-11-08T01:06:21.884Z,8.32
2017-11-08T01:08:56.405Z,5.15
2017-11-08T01:11:31.621Z,7.45
2017-11-08T01:14:06.051Z,4.82
2017-11-08T01:16:41.314Z,7.15
2017-11-08T01:19:16.469Z,5.00
2017-11-08T01:21:50.899Z,5.82
2017-11-08T01:24:25.403Z,8.93
2017-11-08T01:26:59.885Z,5.60
2017-11-08T01:29:34.232Z,6.25
2017-11-08T01:32:09.366Z,4.75
2017-11-08T01:34:43.736Z,5.62
2017-11-08T01:37:23.761Z,4.75
2017-11-08T01:39:58.230Z,5.10
2017-11-08T01:42:32.775Z,6.57
2017-11-08T01:45:08.200Z,7.32
2017-11-08T01:47:42.697Z,4.05
2017-11-08T01:50:17.107Z,6.97
2017-11-08T01:52:51.550Z,8.25
2017-11-08T01:55:26.169Z,11.12
2017-11-08T01:58:00.629Z,13.70
2017-11-08T02:00:35.144Z,6.78
2017-11-08T02:03:09.530Z,7.65
2017-11-08T02:05:43.960Z,4.53
2017-11-08T02:08:18.375Z,8.80
2017-11-08T02:10:52.793Z,3.78
2017-11-08T02:13:27.262Z,7.37
2017-11-08T02:16:01.736Z,9.48
2017-11-08T02:18:36.960Z,8.10
2017-11-08T02:21:11.331Z,12.13
2017-11-08T02:23:45.717Z,5.15
2017-11-08T02:26:20.448Z,8.43
2017-11-08T02:28:54.836Z,6.28
2017-11-08T02:31:29.177Z,8.27
2017-11-08T02:34:05.521Z,9.02
2017-11-08T02:36:40.815Z,8.68
2017-11-08T02:39:15.175Z,6.40
2017-11-08T02:41:49.741Z,9.23
2017-11-08T02:44:24.257Z,5.87
2017-11-08T02:46:59.500Z,8.35
2017-11-08T02:49:33.938Z,8.43
2017-11-08T02:52:08.446Z,11.12
2017-11-08T02:54:42.925Z,8.05
2017-11-08T02:57:17.296Z,13.93
2017-11-08T02:59:51.762Z,8.23
2017-11-08T03:02:30.194Z,9.90
2017-11-08T03:05:19.344Z,7.87
2017-11-08T03:07:53.823Z,16.27
2017-11-08T03:10:28.306Z,10.13
2017-11-08T03:13:02.715Z,9.43
2017-11-08T03:15:37.265Z,8.63
2017-11-08T03:18:12.374Z,9.02
2017-11-08T03:20:47.648Z,8.95
2017-11-08T03:23:22.010Z,7.30
2017-11-08T03:25:56.377Z,8.85
2017-11-08T03:28:30.824Z,9.20
2017-11-08T03:31:05.337Z,10.00
2017-11-08T03:33:39.654Z,10.70
2017-11-08T03:36:14.760Z,11.30
2017-11-08T03:38:49.993Z,10.63
2017-11-08T03:41:24.467Z,12.20
2017-11-08T03:43:58.806Z,14.25
2017-11-08T03:46:33.295Z,13.18
2017-11-08T03:49:09.121Z,14.77
2017-11-08T03:51:43.672Z,18.23
2017-11-08T03:54:18.136Z,14.60
2017-11-08T03:56:52.612Z,15.82
2017-11-08T03:59:27.723Z,17.05
2017-11-08T04:02:02.083Z,15.63
2017-11-08T04:04:36.547Z,14.07
2017-11-08T04:07:11.100Z,14.73
2017-11-08T04:09:45.537Z,21.95
2017-11-08T04:12:20.004Z,18.02
2017-11-08T04:14:54.525Z,21.27
2017-11-08T04:17:28.830Z,12.43
2017-11-08T04:20:03.253Z,19.27
2017-11-08T04:22:37.702Z,14.05
2017-11-08T04:25:12.176Z,14.43
2017-11-08T04:27:46.527Z,16.92
2017-11-08T04:30:21.648Z,15.20
2017-11-08T04:32:56.028Z,18.45
2017-11-08T04:35:30.376Z,19.65
2017-11-08T04:38:04.812Z,18.02
2017-11-08T04:40:39.267Z,17.98
2017-11-08T04:43:13.792Z,13.32
2017-11-08T04:45:48.363Z,22.55
2017-11-08T04:48:22.693Z,19.33
2017-11-08T04:50:57.084Z,15.82
2017-11-08T04:53:31.437Z,16.60
2017-11-08T04:56:05.949Z,19.90
2017-11-08T04:58:40.493Z,18.90
2017-11-08T05:01:14.823Z,16.05
2017-11-08T05:03:51.192Z,20.15
2017-11-08T05:06:25.548Z,19.75
2017-11-08T05:09:01.022Z,19.55
2017-11-08T05:11:36.178Z,18.17
2017-11-08T05:14:10.556Z,15.32
2017-11-08T05:16:44.917Z,22.33
2017-11-08T05:19:19.220Z,20.65
2017-11-08T05:21:54.367Z,23.30
2017-11-08T05:24:28.915Z,16.20
2017-11-08T05:27:03.413Z,21.40
2017-11-08T05:29:37.753Z,26.75
2017-11-08T05:32:12.302Z,23.77
2017-11-08T05:34:46.755Z,22.98
2017-11-08T05:37:21.175Z,19.20
2017-11-08T05:39:55.720Z,20.88
2017-11-08T05:42:30.993Z,23.83
2017-11-08T05:45:05.363Z,25.62
2017-11-08T05:47:39.687Z,22.23
2017-11-08T05:50:14.019Z,25.10
2017-11-08T05:52:48.544Z,25.60
2017-11-08T05:55:23.765Z,22.37
2017-11-08T05:57:58.109Z,18.08
2017-11-08T06:00:32.498Z,24.87
2017-11-08T06:03:06.890Z,24.85
2017-11-08T06:05:41.317Z,24.25
2017-11-08T06:08:15.631Z,23.08
2017-11-08T06:10:50.286Z,27.42
2017-11-08T06:13:24.780Z,24.08
2017-11-08T06:15:59.175Z,21.73
2017-11-08T06:18:33.579Z,22.65
2017-11-08T06:21:08.864Z,24.65
2017-11-08T06:23:43.324Z,25.45
2017-11-08T06:26:18.508Z,27.98
2017-11-08T06:28:53.057Z,23.05
2017-11-08T06:31:27.474Z,26.33
2017-11-08T06:34:01.797Z,27.10
2017-11-08T06:36:36.245Z,25.35
2017-11-08T06:39:10.741Z,23.83
2017-11-08T06:41:45.220Z,26.70
2017-11-08T06:44:19.702Z,26.37
2017-11-08T06:46:54.153Z,27.77
2017-11-08T06:49:28.693Z,28.80
2017-11-08T06:52:03.056Z,32.42
2017-11-08T06:54:37.562Z,28.40
2017-11-08T06:57:12.052Z,29.27
2017-11-08T06:59:46.360Z,29.90
2017-11-08T07:02:21.554Z,28.38
2017-11-08T07:04:55.848Z,29.65
2017-11-08T07:07:30.191Z,26.40
2017-11-08T07:10:04.656Z,31.05
2017-11-08T07:12:39.009Z,26.52
2017-11-08T07:15:13.646Z,26.65
2017-11-08T07:17:48.052Z,31.00
2017-11-08T07:20:22.403Z,33.03
2017-11-08T07:22:56.886Z,35.13
2017-11-08T07:25:31.307Z,31.45
2017-11-08T07:28:05.611Z,29.33
2017-11-08T07:30:40.122Z,36.60
2017-11-08T07:33:14.514Z,29.77
2017-11-08T07:35:48.856Z,31.52
2017-11-08T07:38:23.225Z,29.73
2017-11-08T07:40:57.692Z,33.88
2017-11-08T07:43:32.203Z,32.63
2017-11-08T07:46:06.656Z,30.15
2017-11-08T07:48:41.148Z,28.05
2017-11-08T07:51:15.655Z,33.45
2017-11-08T07:53:50.107Z,33.78
2017-11-08T07:56:24.610Z,35.40
2017-11-08T07:58:58.988Z,34.97
2017-11-08T08:01:33.518Z,33.97
2017-11-08T08:04:07.987Z,36.83
2017-11-08T08:06:43.298Z,37.28
2017-11-08T08:09:17.715Z,33.45
2017-11-08T08:11:52.988Z,28.70
2017-11-08T08:14:27.432Z,31.10
2017-11-08T08:17:01.924Z,40.58
2017-11-08T08:19:36.459Z,37.28
2017-11-08T08:22:11.923Z,37.55
2017-11-08T08:24:46.325Z,38.00
2017-11-08T08:27:20.725Z,31.23
2017-11-08T08:29:55.049Z,39.13
2017-11-08T08:32:29.567Z,39.65
2017-11-08T08:35:04.687Z,34.53
2017-11-08T08:37:39.171Z,45.88
2017-11-08T08:40:14.375Z,39.33
2017-11-08T08:42:48.940Z,38.85
2017-11-08T08:45:23.259Z,37.70
2017-11-08T08:47:57.563Z,45.17
2017-11-08T08:50:32.057Z,44.00
2017-11-08T08:53:06.387Z,36.67
2017-11-08T08:55:40.826Z,39.42
2017-11-08T08:58:15.265Z,45.05
2017-11-08T09:00:49.609Z,41.95
2017-11-08T09:03:23.965Z,40.03
2017-11-08T09:05:58.284Z,37.10
2017-11-08T09:08:33.503Z,36.22
2017-11-08T09:11:07.831Z,40.33
2017-11-08T09:13:42.190Z,34.22
2017-11-08T09:16:16.673Z,42.03
2017-11-08T09:18:51.061Z,33.50
2017-11-08T09:21:25.396Z,37.40
2017-11-08T09:23:59.717Z,35.53
2017-11-08T09:26:34.175Z,43.17
2017-11-08T09:29:08.574Z,42.75
2017-11-08T09:31:43.081Z,43.80
2017-11-08T09:34:17.480Z,41.92
2017-11-08T09:36:51.882Z,42.95
2017-11-08T09:39:27.564Z,39.42
2017-11-08T09:42:05.479Z,39.00
2017-11-08T09:44:39.972Z,42.97
2017-11-08T09:47:14.289Z,38.28
2017-11-08T09:49:48.669Z,38.45
2017-11-08T09:52:23.146Z,39.70
2017-11-08T09:54:57.526Z,56.53
2017-11-08T09:57:31.898Z,49.88
2017-11-08T10:00:07.139Z,48.95
2017-11-08T10:02:41.493Z,46.15
2017-11-08T10:05:16.104Z,54.05
2017-11-08T10:07:50.582Z,54.75
2017-11-08T10:10:29.573Z,50.00
2017-11-08T10:13:09.782Z,43.22
2017-11-08T10:15:44.226Z,40.17
2017-11-08T10:18:18.744Z,46.00
2017-11-08T10:20:53.224Z,44.15
2017-11-08T10:23:27.583Z,41.50
2017-11-08T10:26:02.075Z,43.60
2017-11-08T10:28:36.449Z,48.53
2017-11-08T10:31:10.892Z,41.53
2017-11-08T10:33:45.239Z,46.35
2017-11-08T10:36:19.683Z,45.50
2017-11-08T10:38:54.116Z,38.88
2017-11-08T10:41:28.556Z,38.83
2017-11-08T10:44:02.852Z,42.17
2017-11-08T10:46:37.177Z,38.63
2017-11-08T10:49:17.385Z,49.05
2017-11-08T10:51:51.745Z,40.05
2017-11-08T10:54:26.214Z,36.25
2017-11-08T10:57:00.664Z,39.20
2017-11-08T10:59:40.938Z,45.50
2017-11-08T11:02:17.923Z,44.40
2017-11-08T11:04:52.414Z,37.55
2017-11-08T11:07:26.950Z,38.50
2017-11-08T11:10:01.517Z,32.25
2017-11-08T11:12:36.098Z,34.60
2017-11-08T11:15:10.612Z,32.83
2017-11-08T11:17:45.058Z,40.70
2017-11-08T11:20:19.383Z,36.50
2017-11-08T11:22:53.886Z,38.03
2017-11-08T11:25:29.096Z,38.20
2017-11-08T11:28:03.545Z,43.67
2017-11-08T11:30:38.025Z,38.17
2017-11-08T11:33:12.410Z,33.45
2017-11-08T11:35:46.712Z,34.05
2017-11-08T11:38:27.448Z,35.58
2017-11-08T11:41:01.798Z,36.75
2017-11-08T11:43:36.296Z,35.17
2017-11-08T11:46:10.853Z,33.95
2017-11-08T11:48:50.934Z,46.03
2017-11-08T11:51:26.227Z,35.33
2017-11-08T11:54:00.528Z,41.83
2017-11-08T11:56:34.941Z,39.97
2017-11-08T11:59:09.392Z,33.45
2017-11-08T12:01:43.760Z,32.67
2017-11-08T12:04:18.129Z,39.33
2017-11-08T12:06:52.558Z,36.15
2017-11-08T12:09:27.902Z,37.45
2017-11-08T12:12:02.553Z,31.73
2017-11-08T12:14:36.990Z,35.40
2017-11-08T12:17:11.309Z,40.20
2017-11-08T12:19:47.541Z,31.98
2017-11-08T12:22:21.910Z,36.38
2017-11-08T12:24:56.319Z,37.33
2017-11-08T12:27:31.752Z,34.00
2017-11-08T12:30:07.268Z,38.67
2017-11-08T12:32:41.845Z,38.50
2017-11-08T12:35:16.358Z,31.83
2017-11-08T12:37:50.697Z,37.08
2017-11-08T12:40:25.209Z,33.13
2017-11-08T12:43:00.566Z,35.53
2017-11-08T12:45:34.946Z,28.83
2017-11-08T12:48:09.437Z,32.50
2017-11-08T12:50:43.964Z,31.83
2017-11-08T12:53:19.348Z,39.20
2017-11-08T12:55:54.514Z,35.00
2017-11-08T12:58:29.959Z,39.60
2017-11-08T13:01:05.216Z,35.55
2017-11-08T13:03:39.756Z,30.52
2017-11-08T13:06:14.241Z,32.50
2017-11-08T13:08:48.875Z,33.30
2017-11-08T13:11:28.972Z,31.10
2017-11-08T13:14:03.672Z,37.00
2017-11-08T13:16:38.132Z,35.38
2017-11-08T13:19:12.510Z,36.33
2017-11-08T13:21:46.873Z,34.20
2017-11-08T13:24:21.223Z,30.52
2017-11-08T13:26:55.628Z,36.13
2017-11-08T13:29:30.197Z,32.95
2017-11-08T13:32:04.663Z,34.42
2017-11-08T13:34:39.147Z,34.75
2017-11-08T13:37:13.578Z,37.97
2017-11-08T13:39:50.849Z,42.58
2017-11-08T13:42:25.208Z,36.95
2017-11-08T13:44:59.544Z,41.40
2017-11-08T13:47:34.045Z,37.30
2017-11-08T13:50:08.596Z,37.38
2017-11-08T13:52:43.104Z,34.80
2017-11-08T13:55:17.479Z,35.72
2017-11-08T13:57:52.751Z,47.05
2017-11-08T14:00:27.313Z,43.08
2017-11-08T14:03:01.795Z,38.72
2017-11-08T14:05:36.265Z,40.90
2017-11-08T14:08:10.734Z,40.42
2017-11-08T14:10:45.081Z,47.03
2017-11-08T14:13:19.446Z,44.33
2017-11-08T14:15:53.794Z,50.75
2017-11-08T14:18:28.283Z,41.80
2017-11-08T14:21:03.607Z,36.40
2017-11-08T14:23:38.061Z,36.00
2017-11-08T14:26:12.388Z,41.97
2017-11-08T14:28:46.943Z,41.65
2017-11-08T14:31:21.586Z,39.83
2017-11-08T14:33:55.924Z,42.20
2017-11-08T14:36:30.345Z,35.47
2017-11-08T14:39:04.904Z,32.45
2017-11-08T14:41:39.251Z,28.65
2017-11-08T14:44:13.717Z,33.20
2017-11-08T14:46:48.065Z,36.05
2017-11-08T14:49:22.438Z,34.33
2017-11-08T14:51:59.711Z,35.95
2017-11-08T14:54:34.782Z,33.67
2017-11-08T14:57:09.291Z,36.55
2017-11-08T14:59:44.675Z,33.28
2017-11-08T15:02:19.059Z,31.48
2017-11-08T15:04:54.240Z,39.85
2017-11-08T15:07:28.720Z,40.90
2017-11-08T15:10:03.073Z,33.88
2017-11-08T15:12:44.052Z,37.88
2017-11-08T15:15:19.495Z,36.53
2017-11-08T15:17:56.842Z,34.22
2017-11-08T15:20:31.208Z,33.15
2017-11-08T15:23:05.720Z,35.05
2017-11-08T15:25:40.168Z,29.65
2017-11-08T15:28:14.561Z,30.17
2017-11-08T15:30:49.767Z,34.65
2017-11-08T15:33:24.294Z,29.15
2017-11-08T15:35:59.638Z,31.05
2017-11-08T15:38:34.197Z,32.45
2017-11-08T15:41:08.687Z,33.90
2017-11-08T15:43:43.332Z,34.80
2017-11-08T15:46:18.034Z,41.45
2017-11-08T15:48:52.588Z,35.22
2017-11-08T15:51:27.781Z,36.35
2017-11-08T15:54:02.497Z,36.67
2017-11-08T15:56:36.945Z,39.63
2017-11-08T15:59:11.481Z,43.40
2017-11-08T16:01:45.973Z,34.15
2017-11-08T16:04:26.004Z,39.00
2017-11-08T16:07:00.699Z,37.58
2017-11-08T16:09:35.252Z,41.60
2017-11-08T16:12:09.719Z,38.40
2017-11-08T16:14:44.263Z,39.25
2017-11-08T16:17:18.729Z,32.03
2017-11-08T16:19:53.164Z,38.85
2017-11-08T16:22:27.619Z,40.22
2017-11-08T16:25:02.066Z,34.40
2017-11-08T16:27:36.408Z,36.75
2017-11-08T16:30:11.001Z,34.53
2017-11-08T16:32:45.438Z,44.80
2017-11-08T16:35:19.833Z,37.63
2017-11-08T16:37:54.324Z,37.35
2017-11-08T16:40:29.633Z,40.28
2017-11-08T16:43:03.988Z,35.50
2017-11-08T16:45:38.367Z,39.72
2017-11-08T16:48:13.731Z,39.08
2017-11-08T16:50:48.840Z,38.30
2017-11-08T16:53:23.213Z,30.80
2017-11-08T16:55:57.720Z,34.95
2017-11-08T16:58:32.092Z,39.60
2017-11-08T17:01:06.416Z,44.08
2017-11-08T17:03:40.732Z,34.70
2017-11-08T17:06:15.216Z,38.88
2017-11-08T17:08:49.705Z,40.05
2017-11-08T17:11:24.216Z,38.50
2017-11-08T17:13:58.705Z,35.20
2017-11-08T17:16:33.025Z,39.08
2017-11-08T17:19:07.570Z,46.25
2017-11-08T17:21:42.054Z,44.35
2017-11-08T17:24:16.476Z,47.62
2017-11-08T17:26:50.866Z,41.53
2017-11-08T17:29:25.273Z,44.17
2017-11-08T17:31:59.791Z,43.13
2017-11-08T17:34:34.289Z,42.65
2017-11-08T17:37:08.734Z,34.25
2017-11-08T17:39:43.290Z,42.47
2017-11-08T17:42:17.795Z,109.03
2017-11-08T17:44:52.210Z,84.40
2017-11-08T17:47:26.610Z,62.97
2017-11-08T17:50:01.106Z,74.12
2017-11-08T17:52:35.465Z,50.88
2017-11-08T17:55:09.956Z,37.80
2017-11-08T17:57:44.376Z,43.78
2017-11-08T18:00:18.895Z,42.67
2017-11-08T18:02:53.430Z,47.10
2017-11-08T18:05:27.984Z,55.75
2017-11-08T18:08:02.452Z,47.33
2017-11-08T18:10:36.891Z,48.45
2017-11-08T18:13:11.369Z,37.03
2017-11-08T18:15:45.845Z,44.35
2017-11-08T18:18:20.361Z,48.87
2017-11-08T18:20:54.886Z,48.70
2017-11-08T18:23:29.368Z,46.83
2017-11-08T18:26:03.825Z,44.25
2017-11-08T18:28:38.231Z,41.88
2017-11-08T18:31:13.505Z,37.58
2017-11-08T18:33:47.968Z,35.20
2017-11-08T18:36:22.469Z,36.95
2017-11-08T18:38:56.776Z,40.17
2017-11-08T18:41:31.220Z,38.00
2017-11-08T18:44:05.574Z,37.33
2017-11-08T18:46:39.981Z,35.85
2017-11-08T18:49:14.316Z,40.08
2017-11-08T18:51:48.732Z,42.05
2017-11-08T18:54:23.237Z,43.50
2017-11-08T18:56:57.685Z,40.38
2017-11-08T18:59:32.169Z,36.33
2017-11-08T19:02:06.624Z,43.95
2017-11-08T19:04:41.148Z,43.35
2017-11-08T19:07:15.683Z,44.78
2017-11-08T19:09:50.036Z,40.95
2017-11-08T19:12:24.808Z,42.08
2017-11-08T19:15:00.324Z,35.28
2017-11-08T19:17:35.508Z,44.13
2017-11-08T19:20:09.814Z,44.63
2017-11-08T19:22:44.128Z,38.50
2017-11-08T19:25:19.390Z,37.92
2017-11-08T19:27:53.720Z,37.80
2017-11-08T19:30:28.120Z,44.38
2017-11-08T19:33:02.484Z,42.62
2017-11-08T19:35:36.800Z,43.55
2017-11-08T19:38:11.250Z,37.75
2017-11-08T19:40:45.574Z,44.47
2017-11-08T19:43:20.060Z,41.88
2017-11-08T19:45:54.609Z,41.72
2017-11-08T19:48:28.947Z,38.75
2017-11-08T19:51:03.308Z,39.00
2017-11-08T19:53:38.776Z,41.85
2017-11-08T19:56:13.197Z,50.05
2017-11-08T19:58:49.052Z,41.20
2017-11-08T20:01:23.713Z,39.72
2017-11-08T20:03:58.251Z,42.45
2017-11-08T20:06:32.619Z,45.00
2017-11-08T20:09:07.020Z,48.38
2017-11-08T20:11:41.565Z,53.60
2017-11-08T20:14:16.109Z,48.35
2017-11-08T20:16:50.583Z,48.85
2017-11-08T20:19:25.020Z,48.63
2017-11-08T20:22:00.381Z,35.28
2017-11-08T20:24:35.651Z,41.28
2017-11-08T20:27:10.019Z,49.83
2017-11-08T20:29:44.370Z,41.97
2017-11-08T20:32:18.749Z,37.22
2017-11-08T20:34:54.932Z,37.92
2017-11-08T20:37:29.420Z,43.13
2017-11-08T20:40:03.856Z,38.17
2017-11-08T20:42:38.387Z,40.33
2017-11-08T20:45:12.810Z,39.80
2017-11-08T20:47:48.033Z,42.80
2017-11-08T20:50:22.482Z,36.53
2017-11-08T20:52:56.920Z,40.55
2017-11-08T20:55:32.383Z,40.50
2017-11-08T20:58:07.798Z,43.30
2017-11-08T21:00:42.077Z,40.15
2017-11-08T21:03:16.494Z,50.75
2017-11-08T21:05:50.992Z,62.55
2017-11-08T21:08:25.355Z,49.53
2017-11-08T21:10:59.812Z,42.95
2017-11-08T21:13:34.415Z,51.45
2017-11-08T21:16:09.891Z,42.67
2017-11-08T21:18:44.484Z,48.15
2017-11-08T21:21:18.990Z,45.83
2017-11-08T21:23:53.315Z,37.20
2017-11-08T21:26:27.800Z,42.35
2017-11-08T21:29:02.224Z,45.80
2017-11-08T21:31:36.745Z,44.95
2017-11-08T21:34:11.157Z,42.22
2017-11-08T21:36:45.467Z,51.20
2017-11-08T21:39:20.116Z,42.85
2017-11-08T21:41:55.211Z,43.58
2017-11-08T21:44:29.735Z,46.83
2017-11-08T21:47:04.095Z,46.03
2017-11-08T21:49:38.524Z,45.22
2017-11-08T21:52:13.022Z,43.17
2017-11-08T21:54:47.455Z,45.00
2017-11-08T21:57:22.022Z,52.08
2017-11-08T21:59:56.785Z,45.47
2017-11-08T22:02:31.108Z,49.35
2017-11-08T22:05:06.356Z,46.85
2017-11-08T22:07:41.564Z,42.17
2017-11-08T22:10:15.989Z,45.78
2017-11-08T22:12:50.450Z,51.60
2017-11-08T22:15:24.892Z,48.30
2017-11-08T22:17:59.362Z,43.03
2017-11-08T22:20:33.897Z,58.08
2017-11-08T22:23:08.329Z,50.75
2017-11-08T22:25:42.821Z,42.75
2017-11-08T22:28:17.403Z,44.85
2017-11-08T22:30:51.830Z,48.08
2017-11-08T22:33:26.400Z,40.45
2017-11-08T22:36:00.917Z,41.72
2017-11-08T22:38:35.332Z,47.47
2017-11-08T22:41:09.729Z,45.30
2017-11-08T22:43:44.076Z,40.50
2017-11-08T22:46:18.464Z,42.00
2017-11-08T22:48:52.857Z,43.13
2017-11-08T22:51:27.331Z,42.80
2017-11-08T22:54:01.857Z,42.17
2017-11-08T22:56:36.376Z,39.25
2017-11-08T22:59:10.789Z,45.70
2017-11-08T23:01:45.298Z,44.72
2017-11-08T23:04:19.650Z,39.47
2017-11-08T23:06:54.848Z,43.85
2017-11-08T23:09:29.206Z,45.22
2017-11-08T23:12:03.691Z,41.13
2017-11-08T23:14:38.033Z,46.85
2017-11-08T23:17:12.545Z,42.38
2017-11-08T23:19:47.040Z,43.53
2017-11-08T23:22:21.467Z,40.60
2017-11-08T23:24:55.793Z,38.20
2017-11-08T23:27:30.197Z,44.83
2017-11-08T23:30:04.597Z,41.75
2017-11-08T23:32:39.913Z,40.47
2017-11-08T23:35:15.336Z,43.17
2017-11-08T23:37:49.705Z,40.22
2017-11-08T23:40:24.135Z,50.30
2017-11-08T23:42:58.568Z,40.85
2017-11-08T23:45:33.082Z,42.67
2017-11-08T23:48:07.552Z,45.33
2017-11-08T23:50:42.737Z,44.25
2017-11-08T23:53:17.999Z,43.53
2017-11-08T23:55:55.300Z,38.30
2017-11-08T23:58:29.709Z,44.97
